Time;durP1;ratioP1;P1;durP2;ratioP2;P2;SDS_P1;SDS_P2;PMS_P1;PMS_P2;Temp;Humidity;BMP_temperature;BMP_pressure;BME280_temperature;BME280_humidity;BME280_pressure;Samples;Min_cycle;Max_cycle;Signal;HPM_P1;HPM_P2
2024/04/05 00:00:28;;;;;;;7.07;5.10;;;;;;;12.26;100.00;98158.38;4072824;29;20695;-83
2024/04/05 00:02:32;;;;;;;6.73;4.40;;;;;;;12.27;100.00;98174.91;4073198;29;20636;-83
2024/04/05 00:04:34;;;;;;;5.57;4.33;;;;;;;12.28;100.00;98160.88;4074437;29;20619;-84
2024/04/05 00:06:36;;;;;;;5.40;4.70;;;;;;;12.27;100.00;98162.66;4077260;29;22093;-83
2024/04/05 00:08:39;;;;;;;5.93;3.93;;;;;;;12.28;100.00;98158.25;4045258;29;20683;-83
2024/04/05 00:10:41;;;;;;;6.20;4.60;;;;;;;12.28;100.00;98153.88;4063628;29;21198;-84
2024/04/05 00:12:43;;;;;;;5.67;4.67;;;;;;;12.24;100.00;98156.84;4029209;29;20669;-83
2024/04/05 00:14:44;;;;;;;5.80;4.53;;;;;;;12.21;100.00;98153.59;4078168;29;21221;-84
2024/04/05 00:16:49;;;;;;;5.43;4.60;;;;;;;12.19;100.00;98158.13;4065169;29;20635;-83
2024/04/05 00:18:54;;;;;;;5.63;4.47;;;;;;;12.14;100.00;98148.00;4071196;29;21487;-84
2024/04/05 00:20:56;;;;;;;5.00;4.30;;;;;;;12.19;100.00;98148.47;4074726;29;20615;-84
2024/04/05 00:22:58;;;;;;;6.13;3.90;;;;;;;12.24;100.00;98149.00;4074630;29;20618;-84
2024/04/05 00:25:00;;;;;;;6.27;4.57;;;;;;;12.29;100.00;98149.47;4075074;29;20629;-84
2024/04/05 00:27:02;;;;;;;6.57;4.83;;;;;;;12.34;100.00;98152.56;4065128;29;21267;-84
2024/04/05 00:29:04;;;;;;;6.77;5.43;;;;;;;12.37;100.00;98144.50;4082098;29;20662;-83
2024/04/05 00:31:08;;;;;;;4.93;4.03;;;;;;;12.40;100.00;98141.66;4060823;29;20659;-84
2024/04/05 00:33:10;;;;;;;5.00;3.60;;;;;;;12.46;100.00;98147.28;4076653;29;20674;-84
2024/04/05 00:35:13;;;;;;;5.80;4.30;;;;;;;12.55;100.00;98148.38;4073203;29;20650;-83
2024/04/05 00:37:16;;;;;;;4.90;4.40;;;;;;;12.61;100.00;98142.66;4075216;29;20712;-83
2024/04/05 00:39:17;;;;;;;5.87;3.50;;;;;;;12.65;100.00;98136.28;4053755;29;20684;-83
2024/04/05 00:41:19;;;;;;;6.43;3.43;;;;;;;12.67;100.00;98135.19;4059527;29;21265;-84
2024/04/05 00:43:22;;;;;;;6.43;3.53;;;;;;;12.74;100.00;98137.22;4051905;29;21233;-84
2024/04/05 00:45:25;;;;;;;6.90;4.20;;;;;;;12.76;100.00;98139.72;4043723;29;20645;-84
2024/04/05 00:47:27;;;;;;;4.53;3.90;;;;;;;12.80;100.00;98149.84;4072782;29;20618;-84
2024/04/05 00:49:31;;;;;;;5.70;3.90;;;;;;;12.77;100.00;98147.44;4042455;29;20653;-84
2024/04/05 00:51:35;;;;;;;5.60;4.03;;;;;;;12.75;100.00;98145.94;4087928;28;20626;-84
2024/04/05 00:53:37;;;;;;;6.00;4.37;;;;;;;12.73;100.00;98153.91;4072142;29;20719;-83
2024/04/05 00:55:40;;;;;;;6.13;5.20;;;;;;;12.72;100.00;98149.59;4065903;29;21210;-83
2024/04/05 00:57:41;;;;;;;6.70;5.40;;;;;;;12.69;100.00;98149.81;4044477;29;21257;-83
2024/04/05 00:59:43;;;;;;;8.33;5.43;;;;;;;12.65;100.00;98141.50;4090987;28;20723;-84
2024/04/05 01:01:46;;;;;;;9.23;5.57;;;;;;;12.56;100.00;98131.72;4075534;29;20636;-84
2024/04/05 01:03:47;;;;;;;6.43;5.43;;;;;;;12.57;100.00;98130.75;4062969;29;20623;-84
2024/04/05 01:05:50;;;;;;;5.40;4.90;;;;;;;12.56;100.00;98126.50;4050825;29;20641;-84
2024/04/05 01:07:53;;;;;;;5.30;4.77;;;;;;;12.54;100.00;98134.47;4087931;28;20735;-84
2024/04/05 01:09:56;;;;;;;7.03;5.20;;;;;;;12.54;100.00;98124.00;4059208;29;21604;-84
2024/04/05 01:11:58;;;;;;;7.20;4.90;;;;;;;12.53;100.00;98124.94;4079736;29;20638;-83
2024/04/05 01:14:01;;;;;;;6.27;5.30;;;;;;;12.54;100.00;98126.63;4047987;29;21210;-84
2024/04/05 01:16:06;;;;;;;5.17;4.57;;;;;;;12.55;100.00;98119.59;4056288;29;20686;-84
2024/04/05 01:18:10;;;;;;;5.70;4.33;;;;;;;12.58;100.00;98122.78;4064257;29;21201;-84
2024/04/05 01:20:14;;;;;;;5.13;4.13;;;;;;;12.58;100.00;98120.19;4075647;29;20623;-84
2024/04/05 01:22:17;;;;;;;6.63;4.47;;;;;;;12.62;100.00;98112.94;4061821;29;20630;-84
2024/04/05 01:24:20;;;;;;;5.67;4.47;;;;;;;12.64;100.00;98114.47;4072857;29;20692;-83
2024/04/05 01:26:22;;;;;;;8.97;5.00;;;;;;;12.66;100.00;98114.38;4054988;29;20639;-83
2024/04/05 01:28:24;;;;;;;6.10;4.43;;;;;;;12.66;100.00;98117.84;4051026;29;20785;-84
2024/04/05 01:30:27;;;;;;;6.00;4.90;;;;;;;12.68;100.00;98116.75;4076127;29;20723;-84
2024/04/05 01:32:28;;;;;;;7.53;5.40;;;;;;;12.68;100.00;98115.94;4067623;29;20702;-84
2024/04/05 01:34:29;;;;;;;9.83;5.90;;;;;;;12.64;100.00;98119.72;4033719;29;20677;-84
2024/04/05 01:36:32;;;;;;;6.53;5.60;;;;;;;12.62;100.00;98120.81;4073140;29;20634;-84
2024/04/05 01:38:35;;;;;;;8.60;6.00;;;;;;;12.61;100.00;98121.75;4071200;29;20615;-84
2024/04/05 01:40:39;;;;;;;8.03;5.37;;;;;;;12.60;100.00;98118.31;4057625;29;20632;-84
2024/04/05 01:42:40;;;;;;;5.80;5.20;;;;;;;12.59;100.00;98111.38;4056824;29;20635;-84
2024/04/05 01:44:42;;;;;;;6.20;5.10;;;;;;;12.59;100.00;98113.19;4058108;29;21254;-83
2024/04/05 01:46:44;;;;;;;7.70;5.87;;;;;;;12.59;100.00;98115.81;4060156;29;20687;-84
2024/04/05 01:48:46;;;;;;;12.40;6.30;;;;;;;12.58;100.00;98116.75;4072477;29;20623;-84
2024/04/05 01:50:47;;;;;;;7.27;5.73;;;;;;;12.59;100.00;98116.63;4074054;29;20666;-83
2024/04/05 01:52:50;;;;;;;8.20;6.33;;;;;;;12.59;100.00;98118.41;4078098;29;20748;-84
2024/04/05 01:54:55;;;;;;;7.30;6.03;;;;;;;12.60;100.00;98109.59;4063357;29;20635;-83
2024/04/05 01:56:58;;;;;;;9.83;6.07;;;;;;;12.60;100.00;98109.59;4033556;29;21183;-81
2024/04/05 01:59:00;;;;;;;8.60;6.50;;;;;;;12.59;100.00;98111.38;4073503;29;20758;-82
2024/04/05 02:01:02;;;;;;;12.17;7.70;;;;;;;12.59;100.00;98110.56;4060320;29;20630;-83
2024/04/05 02:03:04;;;;;;;9.37;6.80;;;;;;;12.58;100.00;98114.13;4057720;29;20633;-84
2024/04/05 02:05:06;;;;;;;10.57;7.70;;;;;;;12.57;100.00;98113.31;4072934;29;20636;-84
2024/04/05 02:07:09;;;;;;;9.67;6.67;;;;;;;12.58;100.00;98103.66;4059862;29;21227;-84
2024/04/05 02:09:11;;;;;;;8.80;6.70;;;;;;;12.57;100.00;98107.22;4073525;29;20621;-83
2024/04/05 02:11:14;;;;;;;7.43;6.50;;;;;;;12.59;100.00;98110.56;4063452;29;20636;-83
2024/04/05 02:13:17;;;;;;;9.40;6.93;;;;;;;12.57;100.00;98108.06;4094601;28;20660;-83
2024/04/05 02:15:19;;;;;;;8.53;6.30;;;;;;;12.57;100.00;98110.69;4075126;29;20629;-84
2024/04/05 02:17:20;;;;;;;8.80;6.33;;;;;;;12.55;100.00;98107.31;4062804;29;20632;-83
2024/04/05 02:19:22;;;;;;;7.40;6.60;;;;;;;12.54;100.00;98108.31;4059037;29;20635;-83
2024/04/05 02:21:24;;;;;;;7.13;6.43;;;;;;;12.54;100.00;98099.59;4057989;29;20636;-83
2024/04/05 02:23:25;;;;;;;12.93;6.87;;;;;;;12.55;100.00;98098.66;4035414;29;20632;-83
2024/04/05 02:25:29;;;;;;;9.00;6.13;;;;;;;12.56;100.00;98106.38;4079005;29;20619;-83
2024/04/05 02:27:31;;;;;;;8.80;6.23;;;;;;;12.56;100.00;98108.19;4075295;29;20998;-84
2024/04/05 02:29:37;;;;;;;8.20;6.20;;;;;;;12.55;100.00;98098.66;4060962;29;20660;-83
2024/04/05 02:31:38;;;;;;;8.93;6.80;;;;;;;12.55;100.00;98107.31;4039235;29;20656;-83
2024/04/05 02:33:40;;;;;;;8.60;6.90;;;;;;;12.56;100.00;98110.81;4060032;29;20710;-84
2024/04/05 02:35:42;;;;;;;10.17;6.90;;;;;;;12.57;100.00;98108.06;4076810;29;20671;-84
2024/04/05 02:37:44;;;;;;;7.90;6.60;;;;;;;12.57;100.00;98115.06;4072449;29;20638;-84
2024/04/05 02:39:45;;;;;;;9.80;6.97;;;;;;;12.56;100.00;98114.25;4077600;29;20634;-84
2024/04/05 02:41:49;;;;;;;7.67;6.87;;;;;;;12.57;100.00;98118.53;4077793;29;20722;-84
2024/04/05 02:43:50;;;;;;;10.90;6.93;;;;;;;12.58;100.00;98117.56;4053938;29;20716;-83
2024/04/05 02:45:54;;;;;;;9.17;7.30;;;;;;;12.59;100.00;98123.66;4076702;29;20685;-83
2024/04/05 02:47:57;;;;;;;12.27;7.10;;;;;;;12.59;100.00;98116.63;4048712;29;20858;-83
2024/04/05 02:50:00;;;;;;;10.63;7.20;;;;;;;12.58;100.00;98119.34;4078721;29;20614;-84
2024/04/05 02:52:02;;;;;;;10.47;7.50;;;;;;;12.60;100.00;98123.53;4077597;29;20630;-84
2024/04/05 02:54:04;;;;;;;11.63;7.07;;;;;;;12.62;100.00;98120.81;4059036;29;20664;-84
2024/04/05 02:56:07;;;;;;;8.10;6.73;;;;;;;12.62;100.00;98118.19;4078794;29;20665;-84
2024/04/05 02:58:10;;;;;;;8.80;6.77;;;;;;;12.62;100.00;98116.38;4060195;29;20668;-83
2024/04/05 03:00:15;;;;;;;8.70;7.37;;;;;;;12.63;100.00;98127.69;4071390;29;20630;-83
2024/04/05 03:02:18;;;;;;;9.03;6.40;;;;;;;12.65;100.00;98126.63;4080546;29;20709;-84
2024/04/05 03:04:21;;;;;;;7.73;6.50;;;;;;;12.66;100.00;98128.31;4073490;29;20643;-84
2024/04/05 03:06:23;;;;;;;11.97;6.57;;;;;;;12.66;100.00;98128.31;4077451;29;20651;-83
2024/04/05 03:08:25;;;;;;;9.30;7.03;;;;;;;12.67;100.00;98116.88;4090889;28;20625;-84
2024/04/05 03:10:29;;;;;;;8.97;6.93;;;;;;;12.68;100.00;98121.16;4073000;29;20632;-83
2024/04/05 03:12:32;;;;;;;10.20;7.30;;;;;;;12.68;100.00;98129.00;4059670;29;20623;-84
2024/04/05 03:14:34;;;;;;;9.37;6.83;;;;;;;12.68;100.00;98122.94;4040047;29;20633;-84
2024/04/05 03:16:38;;;;;;;9.70;6.57;;;;;;;12.70;100.00;98120.09;4058921;29;20624;-84
2024/04/05 03:18:42;;;;;;;7.50;6.40;;;;;;;12.70;100.00;98125.34;4058612;29;20624;-84
2024/04/05 03:20:45;;;;;;;9.20;6.50;;;;;;;12.71;100.00;98131.41;4058327;29;24989;-84
2024/04/05 03:22:46;;;;;;;8.60;6.70;;;;;;;12.69;100.00;98128.91;4089100;28;20652;-84
2024/04/05 03:24:48;;;;;;;9.47;6.63;;;;;;;12.68;100.00;98132.44;4054541;29;20628;-84
2024/04/05 03:26:50;;;;;;;8.97;6.53;;;;;;;12.66;100.00;98130.91;4055627;29;20631;-84
2024/04/05 03:28:52;;;;;;;8.10;6.77;;;;;;;12.67;100.00;98136.97;4051037;29;20636;-84
2024/04/05 03:30:53;;;;;;;7.50;6.43;;;;;;;12.68;100.00;98131.63;4074142;29;20630;-83
2024/04/05 03:32:56;;;;;;;7.50;6.57;;;;;;;12.70;100.00;98135.81;4052025;29;20753;-84
2024/04/05 03:35:02;;;;;;;7.73;6.17;;;;;;;12.73;100.00;98138.19;4050201;29;20628;-83
2024/04/05 03:37:06;;;;;;;9.13;6.80;;;;;;;12.74;100.00;98136.41;4070586;29;20638;-83
2024/04/05 03:39:08;;;;;;;8.10;6.53;;;;;;;12.76;100.00;98144.97;4070164;29;20743;-83
2024/04/05 03:41:10;;;;;;;9.87;6.33;;;;;;;12.77;100.00;98141.41;4072048;29;20666;-83
2024/04/05 03:43:12;;;;;;;8.00;6.37;;;;;;;12.78;100.00;98132.59;4072035;29;21265;-83
2024/04/05 03:45:15;;;;;;;7.63;6.70;;;;;;;12.80;100.00;98131.53;4074088;29;20642;-83
2024/04/05 03:47:17;;;;;;;8.13;6.50;;;;;;;12.82;100.00;98139.25;4043005;29;20620;-83
2024/04/05 03:49:20;;;;;;;8.30;6.10;;;;;;;12.82;100.00;98134.03;4058722;29;20643;-84
2024/04/05 03:51:22;;;;;;;8.73;6.60;;;;;;;12.81;100.00;98132.38;4028508;29;20747;-84
2024/04/05 03:53:25;;;;;;;12.13;6.70;;;;;;;12.81;100.00;98133.19;4057828;29;20656;-84
2024/04/05 03:55:26;;;;;;;8.20;6.23;;;;;;;12.81;100.00;98125.34;4058344;29;20625;-84
2024/04/05 03:57:27;;;;;;;9.10;6.70;;;;;;;12.82;100.00;98121.81;4043081;29;21030;-84
2024/04/05 03:59:29;;;;;;;10.10;6.00;;;;;;;12.82;100.00;98121.81;4073912;29;20618;-83
2024/04/05 04:01:31;;;;;;;9.93;6.57;;;;;;;12.83;100.00;98125.25;4057518;29;20691;-84
2024/04/05 04:03:33;;;;;;;9.90;6.57;;;;;;;12.83;100.00;98117.41;4050664;29;20659;-84
2024/04/05 04:05:35;;;;;;;6.97;5.70;;;;;;;12.80;100.00;98131.53;4087623;28;20626;-84
2024/04/05 04:07:38;;;;;;;7.33;6.03;;;;;;;12.78;100.00;98119.53;4070969;29;20615;-84
2024/04/05 04:09:40;;;;;;;7.83;6.60;;;;;;;12.76;100.00;98117.03;4054646;29;20643;-84
2024/04/05 04:11:43;;;;;;;7.77;6.30;;;;;;;12.76;100.00;98124.88;4074187;29;20721;-84
2024/04/05 04:13:44;;;;;;;8.37;6.60;;;;;;;12.75;100.00;98115.34;4078288;29;20654;-84
2024/04/05 04:15:47;;;;;;;11.43;6.90;;;;;;;12.76;100.00;98124.03;4057539;29;20710;-84
2024/04/05 04:17:48;;;;;;;8.03;6.90;;;;;;;12.74;100.00;98124.13;4077150;29;20628;-83
2024/04/05 04:19:52;;;;;;;9.60;6.70;;;;;;;12.73;100.00;98127.72;4060289;29;20727;-84
2024/04/05 04:21:53;;;;;;;8.83;5.80;;;;;;;12.71;100.00;98121.75;4059348;29;20616;-84
2024/04/05 04:23:57;;;;;;;9.70;6.23;;;;;;;12.70;100.00;98127.97;4073883;29;20638;-84
2024/04/05 04:26:00;;;;;;;7.93;5.77;;;;;;;12.71;100.00;98126.16;4071765;29;20631;-83
2024/04/05 04:28:01;;;;;;;8.27;5.90;;;;;;;12.70;100.00;98132.34;4063700;29;20630;-84
2024/04/05 04:30:04;;;;;;;9.30;5.97;;;;;;;12.68;100.00;98121.97;4060154;29;20620;-83
2024/04/05 04:32:06;;;;;;;9.20;6.10;;;;;;;12.65;100.00;98117.97;4065363;29;21250;-83
2024/04/05 04:34:08;;;;;;;8.20;5.93;;;;;;;12.63;100.00;98117.22;4053390;29;21241;-83
2024/04/05 04:36:09;;;;;;;8.50;5.83;;;;;;;12.62;100.00;98123.41;4065774;29;20631;-80
2024/04/05 04:38:12;;;;;;;8.10;6.13;;;;;;;12.62;100.00;98119.00;4062384;29;21004;-82
2024/04/05 04:40:15;;;;;;;10.60;7.03;;;;;;;12.63;100.00;98122.44;4064016;29;20679;-81
2024/04/05 04:42:18;;;;;;;12.33;8.20;;;;;;;12.61;100.00;98117.34;4076356;29;20627;-82
2024/04/05 04:44:19;;;;;;;19.87;14.00;;;;;;;12.61;100.00;98121.75;4071322;29;20672;-82
2024/04/05 04:46:21;;;;;;;19.00;10.57;;;;;;;12.61;100.00;98117.34;4076151;29;20678;-82
2024/04/05 04:48:24;;;;;;;10.33;6.60;;;;;;;12.61;100.00;98121.75;4061223;29;22564;-83
2024/04/05 04:50:27;;;;;;;7.03;5.07;;;;;;;12.63;100.00;98119.84;4073143;29;21041;-82
2024/04/05 04:52:29;;;;;;;7.33;5.30;;;;;;;12.63;100.00;98122.44;4059677;29;20730;-83
2024/04/05 04:54:31;;;;;;;6.87;5.23;;;;;;;12.62;100.00;98115.56;4056593;29;20656;-82
2024/04/05 04:56:34;;;;;;;8.00;5.20;;;;;;;12.62;100.00;98113.78;4053488;29;20666;-84
2024/04/05 04:58:36;;;;;;;7.23;5.30;;;;;;;12.63;100.00;98120.69;4090606;28;21218;-83
2024/04/05 05:00:39;;;;;;;6.80;5.27;;;;;;;12.62;100.00;98115.56;4071602;29;20709;-84
2024/04/05 05:02:43;;;;;;;8.57;6.27;;;;;;;12.63;100.00;98114.59;4073275;29;20644;-83
2024/04/05 05:04:45;;;;;;;8.50;5.40;;;;;;;12.64;100.00;98121.50;4070278;29;20638;-83
2024/04/05 05:06:49;;;;;;;8.63;6.30;;;;;;;12.63;100.00;98128.53;4071627;29;20630;-84
2024/04/05 05:08:51;;;;;;;7.80;6.00;;;;;;;12.63;100.00;98130.28;4087647;28;20688;-83
2024/04/05 05:10:53;;;;;;;9.33;5.90;;;;;;;12.64;100.00;98129.34;4059860;29;20656;-83
2024/04/05 05:12:56;;;;;;;6.57;5.67;;;;;;;12.65;100.00;98129.25;4071039;29;20678;-81
2024/04/05 05:15:01;;;;;;;8.50;5.93;;;;;;;12.66;100.00;98132.69;4077980;29;20625;-82
2024/04/05 05:17:05;;;;;;;6.80;5.77;;;;;;;12.67;100.00;98134.34;4040754;29;20623;-83
2024/04/05 05:19:07;;;;;;;12.77;6.90;;;;;;;12.66;100.00;98138.78;4048826;29;20803;-82
2024/04/05 05:21:08;;;;;;;10.37;5.87;;;;;;;12.66;100.00;98130.06;4092448;28;21167;-82
2024/04/05 05:23:11;;;;;;;7.50;6.17;;;;;;;12.66;100.00;98132.69;4075333;29;20631;-82
2024/04/05 05:25:13;;;;;;;8.97;6.57;;;;;;;12.68;100.00;98133.41;4061414;29;20640;-82
2024/04/05 05:27:15;;;;;;;9.80;6.93;;;;;;;12.68;100.00;98125.56;4061005;29;21071;-83
2024/04/05 05:29:18;;;;;;;9.77;6.40;;;;;;;12.68;100.00;98129.84;4065477;29;20627;-82
2024/04/05 05:31:20;;;;;;;9.40;7.07;;;;;;;12.69;100.00;98130.69;4080023;29;21405;-82
2024/04/05 05:33:22;;;;;;;7.97;6.13;;;;;;;12.68;100.00;98136.03;4046701;29;20778;-83
2024/04/05 05:35:24;;;;;;;12.13;9.00;;;;;;;12.67;100.00;98132.56;4080836;29;20619;-83
2024/04/05 05:37:26;;;;;;;9.50;6.27;;;;;;;12.68;100.00;98128.19;4067640;29;21003;-83
2024/04/05 05:39:28;;;;;;;10.13;6.40;;;;;;;12.65;100.00;98125.81;4063633;29;20636;-83
2024/04/05 05:41:29;;;;;;;7.50;5.70;;;;;;;12.63;100.00;98122.44;4087515;28;20630;-83
2024/04/05 05:43:32;;;;;;;7.80;6.63;;;;;;;12.63;100.00;98125.06;4062388;29;21100;-83
2024/04/05 05:45:35;;;;;;;8.67;6.70;;;;;;;12.64;100.00;98121.50;4048028;29;21146;-83
2024/04/05 05:47:37;;;;;;;9.43;7.47;;;;;;;12.64;100.00;98118.88;4076186;29;20658;-83
2024/04/05 05:49:39;;;;;;;8.97;6.73;;;;;;;12.66;100.00;98122.22;4088129;28;21007;-83
2024/04/05 05:51:41;;;;;;;8.30;6.27;;;;;;;12.68;100.00;98121.97;4075396;29;21247;-83
2024/04/05 05:53:43;;;;;;;8.57;6.73;;;;;;;12.69;100.00;98118.44;4062937;29;20694;-83
2024/04/05 05:55:50;;;;;;;8.37;6.60;;;;;;;12.73;100.00;98124.25;4067168;29;21216;-83
2024/04/05 05:57:51;;;;;;;9.80;8.43;;;;;;;12.76;100.00;98113.56;4068601;29;21174;-83
2024/04/05 05:59:53;;;;;;;13.13;10.57;;;;;;;12.82;100.00;98119.19;4068740;29;20667;-84
2024/04/05 06:01:57;;;;;;;12.73;9.63;;;;;;;12.99;100.00;98129.19;4068888;29;20619;-85
2024/04/05 06:04:00;;;;;;;12.97;10.50;;;;;;;13.12;100.00;98131.69;4053276;29;20664;-84
2024/04/05 06:06:06;;;;;;;10.93;9.30;;;;;;;13.18;100.00;98127.66;4071451;29;21507;-84
2024/04/05 06:08:08;;;;;;;11.13;9.73;;;;;;;13.28;100.00;98133.81;4081585;29;20626;-84
2024/04/05 06:10:10;;;;;;;13.27;10.20;;;;;;;13.47;100.00;98135.81;4076974;29;20622;-84
2024/04/05 06:12:13;;;;;;;13.40;9.10;;;;;;;13.67;100.00;98126.25;4049458;29;20657;-85
2024/04/05 06:14:15;;;;;;;10.03;8.23;;;;;;;13.80;100.00;98133.97;4066942;29;20667;-84
2024/04/05 06:16:18;;;;;;;10.53;8.00;;;;;;;13.92;100.00;98135.59;4067290;29;21494;-84
2024/04/05 06:18:21;;;;;;;11.70;8.73;;;;;;;14.12;100.00;98143.56;4053282;29;20625;-83
2024/04/05 06:20:23;;;;;;;9.90;8.30;;;;;;;14.22;98.73;98149.72;4056039;29;20634;-85
2024/04/05 06:22:27;;;;;;;9.87;7.47;;;;;;;14.35;98.90;98155.63;4082496;29;20639;-85
2024/04/05 06:24:29;;;;;;;8.80;7.13;;;;;;;14.52;97.84;98149.81;4083917;29;20630;-85
2024/04/05 06:26:32;;;;;;;9.33;7.23;;;;;;;14.54;97.64;98146.13;4067210;29;21045;-85
2024/04/05 06:28:35;;;;;;;9.40;6.67;;;;;;;14.49;98.29;98147.44;4052513;29;20627;-84
2024/04/05 06:30:37;;;;;;;10.07;7.23;;;;;;;14.61;98.85;98152.50;4067815;29;21002;-82
2024/04/05 06:32:39;;;;;;;8.10;6.73;;;;;;;14.82;97.37;98162.03;4047423;29;20786;-82
2024/04/05 06:34:43;;;;;;;10.77;7.87;;;;;;;15.00;96.45;98151.78;4061091;29;20740;-83
2024/04/05 06:36:46;;;;;;;8.30;6.77;;;;;;;15.11;94.68;98149.91;4086516;28;21165;-84
2024/04/05 06:38:48;;;;;;;8.27;6.47;;;;;;;15.25;95.33;98154.84;4049621;29;20614;-84
2024/04/05 06:40:55;;;;;;;8.87;6.90;;;;;;;15.42;93.64;98157.66;4078879;28;20638;-82
2024/04/05 06:42:57;;;;;;;9.43;6.60;;;;;;;15.62;93.13;98155.00;4062654;29;20626;-83
2024/04/05 06:44:59;;;;;;;9.37;7.00;;;;;;;15.86;95.17;98152.84;4058048;29;21014;-82
2024/04/05 06:47:03;;;;;;;9.63;7.00;;;;;;;16.08;94.19;98158.66;4055254;29;20666;-83
2024/04/05 06:49:04;;;;;;;11.80;7.80;;;;;;;16.31;92.62;98160.13;4061612;29;20669;-84
2024/04/05 06:51:12;;;;;;;7.90;6.07;;;;;;;16.52;94.12;98151.13;4054739;29;20665;-84
2024/04/05 06:53:13;;;;;;;10.67;6.47;;;;;;;16.67;93.72;98152.34;4040524;29;20635;-84
2024/04/05 06:55:19;;;;;;;9.93;7.50;;;;;;;16.82;93.43;98153.56;4050708;29;20667;-84
2024/04/05 06:57:20;;;;;;;10.10;7.30;;;;;;;17.02;93.32;98147.28;4079358;29;20628;-84
2024/04/05 06:59:22;;;;;;;11.20;7.43;;;;;;;17.16;91.64;98144.19;4080542;28;20636;-84
2024/04/05 07:01:24;;;;;;;7.70;6.23;;;;;;;17.35;91.47;98138.88;4058782;29;20994;-84
2024/04/05 07:03:26;;;;;;;10.17;7.03;;;;;;;17.59;90.74;98143.50;4076592;29;21065;-84
2024/04/05 07:05:28;;;;;;;8.70;7.00;;;;;;;17.84;90.72;98141.97;4060524;29;21080;-83
2024/04/05 07:07:32;;;;;;;7.77;6.70;;;;;;;18.08;89.81;98137.75;4049783;29;20623;-84
2024/04/05 07:09:33;;;;;;;10.00;7.20;;;;;;;18.17;89.53;98144.81;4090279;28;20640;-83
2024/04/05 07:11:37;;;;;;;9.07;6.93;;;;;;;18.20;89.34;98144.53;4058504;29;20722;-83
2024/04/05 07:13:38;;;;;;;9.80;7.63;;;;;;;18.15;89.57;98142.34;4066085;29;20639;-82
2024/04/05 07:15:40;;;;;;;7.90;6.60;;;;;;;18.05;88.77;98140.69;4036337;29;20645;-83
2024/04/05 07:17:48;;;;;;;6.93;5.93;;;;;;;18.02;89.72;98143.63;4075608;29;20634;-83
2024/04/05 07:19:51;;;;;;;10.83;6.90;;;;;;;18.07;89.10;98133.44;4075141;29;20690;-83
2024/04/05 07:21:53;;;;;;;5.87;3.80;;;;;;;18.17;87.69;98140.34;4086657;28;20621;-82
2024/04/05 07:23:56;;;;;;;5.50;2.80;;;;;;;18.32;87.15;98138.84;4073577;29;20631;-83
2024/04/05 07:25:59;;;;;;;5.53;2.67;;;;;;;18.56;89.30;98139.09;4077254;29;20621;-83
2024/04/05 07:28:03;;;;;;;3.20;1.80;;;;;;;18.72;87.24;98137.41;4075304;29;20990;-83
2024/04/05 07:30:06;;;;;;;4.40;2.00;;;;;;;18.82;87.03;98138.13;4062191;29;21116;-83
2024/04/05 07:32:08;;;;;;;3.23;1.63;;;;;;;18.92;84.13;98138.88;4068947;29;20699;-83
2024/04/05 07:34:10;;;;;;;3.80;1.70;;;;;;;19.07;84.15;98148.75;4065197;29;20656;-83
2024/04/05 07:36:12;;;;;;;5.33;1.80;;;;;;;19.22;83.45;98146.38;4079372;29;20651;-83
2024/04/05 07:38:14;;;;;;;2.90;1.60;;;;;;;19.30;80.05;98151.69;4057879;29;20693;-83
2024/04/05 07:40:21;;;;;;;5.87;1.70;;;;;;;19.37;79.71;98144.81;4072729;29;20624;-83
2024/04/05 07:42:23;;;;;;;4.10;1.60;;;;;;;19.51;81.82;98150.31;4071483;29;20627;-83
2024/04/05 07:44:25;;;;;;;5.67;1.83;;;;;;;19.60;80.22;98141.44;4053539;29;20629;-83
2024/04/05 07:46:26;;;;;;;3.43;1.50;;;;;;;19.73;79.89;98137.34;4080029;29;20640;-83
2024/04/05 07:48:29;;;;;;;6.67;2.40;;;;;;;19.79;79.15;98122.66;4062169;29;21034;-83
2024/04/05 07:50:30;;;;;;;3.00;1.50;;;;;;;19.84;79.31;98121.16;4069433;29;21012;-83
2024/04/05 07:52:33;;;;;;;3.63;1.60;;;;;;;19.86;77.33;98109.47;4067226;29;20641;-83
2024/04/05 07:54:34;;;;;;;2.67;1.50;;;;;;;19.80;77.00;98106.63;4064662;29;20649;-83
2024/04/05 07:56:38;;;;;;;2.60;1.63;;;;;;;19.76;76.45;98104.44;4066899;29;20704;-83
2024/04/05 07:58:39;;;;;;;3.23;1.40;;;;;;;19.79;76.67;98117.38;4057691;29;20628;-83
2024/04/05 08:00:42;;;;;;;5.00;3.00;;;;;;;19.85;76.31;98121.00;4067281;29;20657;-83
2024/04/05 08:02:46;;;;;;;4.10;2.70;;;;;;;20.03;77.56;98123.59;4082988;29;20641;-83
2024/04/05 08:04:48;;;;;;;3.90;1.77;;;;;;;20.17;76.62;98122.94;4069628;29;21058;-83
2024/04/05 08:06:49;;;;;;;4.30;2.10;;;;;;;20.32;75.94;98121.31;4060697;29;20638;-83
2024/04/05 08:08:52;;;;;;;11.27;3.10;;;;;;;20.50;76.55;98125.47;4068048;29;20640;-83
2024/04/05 08:10:59;;;;;;;4.13;2.10;;;;;;;20.56;77.05;98120.31;4058249;28;20738;-83
2024/04/05 08:13:03;;;;;;;7.20;3.20;;;;;;;20.66;76.85;98121.00;4045199;29;20664;-83
2024/04/05 08:15:05;;;;;;;5.20;1.70;;;;;;;20.84;76.49;98122.50;4058442;29;21642;-83
2024/04/05 08:17:06;;;;;;;3.50;1.83;;;;;;;20.99;76.15;98125.31;4062380;29;20640;-83
2024/04/05 08:19:09;;;;;;;7.20;2.80;;;;;;;21.22;77.33;98116.47;4064266;29;20638;-82
2024/04/05 08:21:10;;;;;;;7.30;1.63;;;;;;;21.30;74.36;98113.78;4061714;29;20618;-83
2024/04/05 08:23:12;;;;;;;3.37;1.50;;;;;;;21.39;74.85;98118.09;4074761;28;20660;-83
2024/04/05 08:25:14;;;;;;;5.00;2.00;;;;;;;21.38;75.06;98116.44;4064675;29;20643;-83
2024/04/05 08:27:17;;;;;;;5.70;1.60;;;;;;;21.21;73.87;98101.53;4081589;29;20700;-83
2024/04/05 08:29:20;;;;;;;6.57;2.03;;;;;;;21.29;73.30;98102.34;4081013;29;20626;-84
2024/04/05 08:31:23;;;;;;;6.40;3.57;;;;;;;21.43;73.42;98093.69;4064753;29;20623;-84
2024/04/05 08:33:28;;;;;;;5.27;3.30;;;;;;;21.62;74.42;98093.31;4045802;29;20679;-83
2024/04/05 08:35:31;;;;;;;5.03;2.47;;;;;;;21.76;73.10;98080.13;4067471;29;20653;-83
2024/04/05 08:37:33;;;;;;;3.53;1.37;;;;;;;21.70;73.22;98080.00;4078953;29;20670;-83
2024/04/05 08:39:37;;;;;;;3.00;1.37;;;;;;;21.79;72.52;98090.38;4073057;29;20742;-83
2024/04/05 08:41:39;;;;;;;3.60;1.53;;;;;;;22.01;72.86;98083.47;4086095;28;20646;-83
2024/04/05 08:43:41;;;;;;;4.67;1.50;;;;;;;22.06;72.80;98079.28;4091350;28;20698;-84
2024/04/05 08:45:45;;;;;;;3.37;1.43;;;;;;;22.19;71.42;98084.84;4081050;29;20626;-84
2024/04/05 08:47:48;;;;;;;3.53;1.70;;;;;;;22.29;72.07;98083.63;4080101;29;20662;-83
2024/04/05 08:49:52;;;;;;;3.40;1.40;;;;;;;22.38;71.75;98087.88;4040556;29;21194;-83
2024/04/05 08:51:54;;;;;;;3.27;1.63;;;;;;;22.49;71.23;98095.47;4073403;29;20627;-83
2024/04/05 08:53:55;;;;;;;4.23;1.33;;;;;;;22.54;71.17;98093.09;4080292;29;20631;-83
2024/04/05 08:56:00;;;;;;;3.23;1.60;;;;;;;22.71;68.85;98089.28;4063188;29;20793;-85
2024/04/05 08:58:02;;;;;;;5.30;1.63;;;;;;;22.78;69.98;98093.69;4076439;29;21255;-84
2024/04/05 09:00:07;;;;;;;4.03;1.50;;;;;;;22.63;71.42;98077.88;4061678;29;20647;-85
2024/04/05 09:02:10;;;;;;;3.97;1.70;;;;;;;22.41;72.01;98082.22;4061323;29;20667;-85
2024/04/05 09:04:13;;;;;;;3.53;1.50;;;;;;;22.22;70.78;98075.72;4075238;29;20627;-83
2024/04/05 09:06:14;;;;;;;4.30;1.63;;;;;;;22.19;68.30;98081.34;4060426;29;20746;-84
2024/04/05 09:08:17;;;;;;;10.90;6.30;;;;;;;22.17;69.29;98070.09;4074651;29;20654;-84
2024/04/05 09:10:19;;;;;;;3.30;1.80;;;;;;;22.35;69.98;98074.94;4062144;29;21048;-83
2024/04/05 09:12:22;;;;;;;3.03;1.70;;;;;;;22.50;68.53;98075.00;4042483;29;21211;-83
2024/04/05 09:14:24;;;;;;;5.03;1.87;;;;;;;22.57;68.65;98076.78;4072699;29;21396;-83
2024/04/05 09:16:27;;;;;;;4.13;1.60;;;;;;;22.65;69.29;98089.19;4062297;29;20625;-83
2024/04/05 09:18:30;;;;;;;3.13;1.60;;;;;;;22.66;67.77;98080.16;4056811;29;20633;-83
2024/04/05 09:20:34;;;;;;;4.10;2.37;;;;;;;22.76;70.62;98071.78;4058866;29;20655;-83
2024/04/05 09:22:36;;;;;;;3.30;1.80;;;;;;;22.82;68.58;98064.88;4030451;29;20726;-84
2024/04/05 09:24:38;;;;;;;3.87;1.50;;;;;;;22.86;67.64;98060.88;4063238;29;20724;-84
2024/04/05 09:26:40;;;;;;;5.70;1.67;;;;;;;22.97;68.17;98063.97;4059016;29;20689;-84
2024/04/05 09:28:42;;;;;;;3.90;1.60;;;;;;;23.02;67.79;98055.41;4057338;29;21020;-83
2024/04/05 09:30:46;;;;;;;6.83;4.10;;;;;;;23.08;67.87;98050.19;4075867;29;21080;-83